Time;durP1;ratioP1;P1;durP2;ratioP2;P2;SDS_P1;SDS_P2;PMS_P1;PMS_P2;Temp;Humidity;BMP_temperature;BMP_pressure;BME280_temperature;BME280_humidity;BME280_pressure;Samples;Min_cycle;Max_cycle;Signal;HPM_P1;HPM_P2
2023/07/27 00:00:46;;;;;;;11.32;4.38;;;17.50;99.90;;;;;;5094083;28;20020;-69
2023/07/27 00:03:12;;;;;;;8.05;4.15;;;17.50;99.90;;;;;;5092777;28;20039;-70
2023/07/27 00:05:39;;;;;;;11.60;4.80;;;17.60;99.90;;;;;;5093915;28;20066;-70
2023/07/27 00:08:04;;;;;;;11.95;4.43;;;17.50;99.90;;;;;;5093791;28;20059;-71
2023/07/27 00:10:30;;;;;;;9.65;4.03;;;17.50;99.90;;;;;;5093898;28;20062;-70
2023/07/27 00:12:56;;;;;;;11.20;4.43;;;17.60;99.90;;;;;;5093337;28;20386;-70
2023/07/27 00:15:22;;;;;;;11.30;4.22;;;17.50;99.90;;;;;;5093831;28;20046;-70
2023/07/27 00:17:47;;;;;;;10.05;4.30;;;17.50;99.90;;;;;;5093615;28;20024;-70
2023/07/27 00:20:13;;;;;;;12.48;4.82;;;17.50;99.90;;;;;;5093479;28;20127;-71
2023/07/27 00:22:38;;;;;;;10.50;3.95;;;17.50;99.90;;;;;;5093634;28;20096;-71
2023/07/27 00:25:05;;;;;;;10.10;3.95;;;17.50;99.90;;;;;;5093336;28;20383;-70
2023/07/27 00:27:30;;;;;;;11.95;4.30;;;17.40;99.90;;;;;;5074986;28;20028;-71
2023/07/27 00:29:56;;;;;;;8.60;3.90;;;17.40;99.90;;;;;;5093273;28;20050;-68
2023/07/27 00:32:22;;;;;;;11.23;4.20;;;17.40;99.90;;;;;;5093486;28;20099;-68
2023/07/27 00:34:49;;;;;;;10.18;3.95;;;17.20;99.90;;;;;;5093510;28;20027;-67
2023/07/27 00:37:15;;;;;;;10.95;4.22;;;17.00;99.90;;;;;;5093633;28;20036;-67
2023/07/27 00:39:40;;;;;;;12.98;4.63;;;16.80;99.90;;;;;;5093253;28;20034;-66
2023/07/27 00:42:06;;;;;;;12.02;4.50;;;16.60;99.90;;;;;;5092838;28;20040;-66
2023/07/27 00:44:31;;;;;;;13.95;4.82;;;16.40;99.90;;;;;;5093337;28;20044;-66
2023/07/27 00:46:57;;;;;;;13.63;5.13;;;16.30;99.90;;;;;;5093199;28;20108;-67
2023/07/27 00:49:23;;;;;;;16.73;5.22;;;16.20;99.90;;;;;;5092941;28;20028;-67
2023/07/27 00:51:49;;;;;;;12.70;4.40;;;16.10;99.90;;;;;;5093180;28;20028;-67
2023/07/27 00:54:15;;;;;;;11.75;4.82;;;16.00;99.90;;;;;;5093198;28;20454;-67
2023/07/27 00:56:41;;;;;;;11.48;4.82;;;15.90;99.90;;;;;;5074513;28;20028;-67
2023/07/27 00:59:07;;;;;;;14.75;4.60;;;15.80;99.90;;;;;;5093213;28;20035;-67
2023/07/27 01:01:33;;;;;;;14.50;5.50;;;15.80;99.90;;;;;;5092886;28;20028;-68
2023/07/27 01:03:59;;;;;;;14.85;5.57;;;15.70;99.90;;;;;;5092760;28;20031;-68
2023/07/27 01:06:25;;;;;;;16.33;6.13;;;15.70;99.90;;;;;;5092963;28;20036;-68
2023/07/27 01:08:52;;;;;;;16.48;6.40;;;15.70;99.90;;;;;;5092730;28;20092;-68
2023/07/27 01:11:28;;;;;;;15.82;5.70;;;15.60;99.90;;;;;;5092507;28;20024;-68
2023/07/27 01:14:09;;;;;;;12.68;6.75;;;15.60;99.90;;;;;;5093409;28;20086;-68
2023/07/27 01:16:53;;;;;;;15.20;7.20;;;15.60;99.90;;;;;;5092981;28;20036;-67
2023/07/27 01:19:43;;;;;;;21.17;9.13;;;15.60;99.90;;;;;;5092747;28;20024;-68
2023/07/27 01:22:46;;;;;;;16.77;8.05;;;15.50;99.90;;;;;;5092604;28;20032;-68
2023/07/27 01:25:32;;;;;;;18.75;8.88;;;15.40;99.90;;;;;;5092408;28;20079;-68
2023/07/27 01:28:19;;;;;;;19.00;9.32;;;15.40;99.90;;;;;;5091630;28;20090;-68
2023/07/27 01:31:18;;;;;;;18.08;8.38;;;15.30;99.90;;;;;;5092128;28;20032;-68
2023/07/27 01:33:48;;;;;;;18.17;8.52;;;15.40;99.90;;;;;;5074859;28;20062;-68
2023/07/27 01:36:20;;;;;;;18.70;8.75;;;15.30;99.90;;;;;;5092028;28;20043;-69
2023/07/27 01:38:48;;;;;;;21.40;9.30;;;15.30;99.90;;;;;;5092251;28;20028;-68
2023/07/27 01:41:15;;;;;;;18.27;8.48;;;15.30;99.90;;;;;;5092283;28;20028;-69
2023/07/27 01:43:42;;;;;;;17.52;7.70;;;15.30;99.90;;;;;;5091903;28;20139;-69
2023/07/27 01:46:10;;;;;;;17.63;8.88;;;15.30;99.90;;;;;;5092298;28;20101;-68
2023/07/27 01:48:38;;;;;;;15.43;7.82;;;15.30;99.90;;;;;;5091692;28;20119;-68
2023/07/27 01:51:06;;;;;;;16.75;8.07;;;15.30;99.90;;;;;;5091887;28;20051;-68
2023/07/27 01:53:34;;;;;;;19.17;8.30;;;15.30;99.90;;;;;;5092125;28;20039;-68
2023/07/27 01:56:02;;;;;;;17.98;8.93;;;15.30;99.90;;;;;;5092102;28;20126;-68
2023/07/27 01:58:30;;;;;;;17.95;8.88;;;15.30;99.90;;;;;;5092345;28;20036;-69
2023/07/27 02:00:56;;;;;;;21.45;9.07;;;15.30;99.90;;;;;;5092249;28;20036;-69
2023/07/27 02:03:22;;;;;;;23.00;9.55;;;15.30;99.90;;;;;;5091612;28;20414;-68
2023/07/27 02:05:47;;;;;;;19.83;9.13;;;15.30;99.90;;;;;;5092031;28;20132;-68
2023/07/27 02:08:13;;;;;;;21.08;10.30;;;15.30;99.90;;;;;;5092121;28;20020;-68
2023/07/27 02:10:40;;;;;;;23.02;11.25;;;15.30;99.90;;;;;;5092173;28;20024;-68
2023/07/27 02:13:25;;;;;;;20.25;10.32;;;15.30;99.90;;;;;;5091931;28;20055;-68
2023/07/27 02:16:12;;;;;;;24.88;11.60;;;15.30;99.90;;;;;;5091692;28;20028;-68
2023/07/27 02:18:39;;;;;;;21.77;11.48;;;15.30;99.90;;;;;;5092065;28;20042;-68
2023/07/27 02:21:07;;;;;;;22.42;12.80;;;15.30;99.90;;;;;;5091915;28;20035;-68
2023/07/27 02:23:34;;;;;;;20.15;11.07;;;15.30;99.90;;;;;;5073745;28;20086;-68
2023/07/27 02:25:59;;;;;;;20.02;10.98;;;15.30;99.90;;;;;;5092057;28;20085;-68
2023/07/27 02:28:28;;;;;;;22.15;11.25;;;15.20;99.90;;;;;;5091855;28;20032;-68
2023/07/27 02:30:54;;;;;;;21.95;12.35;;;15.20;99.90;;;;;;5092036;28;20024;-68
2023/07/27 02:33:19;;;;;;;20.48;11.98;;;15.20;99.90;;;;;;5091750;28;20028;-68
2023/07/27 02:35:45;;;;;;;20.42;11.20;;;15.20;99.90;;;;;;5091970;28;20389;-69
2023/07/27 02:38:10;;;;;;;23.42;12.45;;;15.20;99.90;;;;;;5091825;28;20032;-67
2023/07/27 02:40:36;;;;;;;20.23;12.30;;;15.20;99.90;;;;;;5093070;28;20024;-67
2023/07/27 02:43:03;;;;;;;23.05;12.15;;;15.20;99.90;;;;;;5095257;28;20160;-68
2023/07/27 02:45:28;;;;;;;23.77;12.95;;;15.20;99.90;;;;;;5095503;28;20035;-69
2023/07/27 02:47:54;;;;;;;24.17;13.35;;;15.30;99.90;;;;;;5095978;28;20028;-68
2023/07/27 02:50:20;;;;;;;22.42;11.70;;;15.30;99.90;;;;;;5095394;28;20028;-67
2023/07/27 02:52:45;;;;;;;21.42;12.05;;;15.30;99.90;;;;;;5095327;28;20577;-68
2023/07/27 02:55:11;;;;;;;21.58;12.10;;;15.30;99.90;;;;;;5095244;28;20024;-69
2023/07/27 02:57:37;;;;;;;22.98;11.70;;;15.20;99.90;;;;;;5094904;28;20073;-68
2023/07/27 03:00:03;;;;;;;23.42;12.00;;;15.20;99.90;;;;;;5095467;28;20028;-68
2023/07/27 03:02:29;;;;;;;23.40;12.10;;;15.20;99.90;;;;;;5095329;28;20036;-70
2023/07/27 03:04:54;;;;;;;24.83;13.30;;;15.20;99.90;;;;;;5077125;28;20047;-68
2023/07/27 03:07:20;;;;;;;22.60;13.05;;;15.20;99.90;;;;;;5077188;28;20058;-68
2023/07/27 03:09:51;;;;;;;22.05;12.32;;;15.20;99.90;;;;;;5094869;28;20100;-68
2023/07/27 03:12:17;;;;;;;23.08;12.60;;;15.20;99.90;;;;;;5095129;28;20028;-68
2023/07/27 03:14:43;;;;;;;20.90;12.45;;;15.20;99.90;;;;;;5095154;28;20038;-68
2023/07/27 03:17:08;;;;;;;22.50;11.07;;;15.20;99.90;;;;;;5094937;28;20032;-68
2023/07/27 03:19:34;;;;;;;21.25;10.30;;;15.20;99.90;;;;;;5094937;28;20530;-68
2023/07/27 03:22:00;;;;;;;19.00;10.38;;;15.20;99.90;;;;;;5095101;28;20036;-67
2023/07/27 03:24:26;;;;;;;20.02;10.45;;;15.20;99.90;;;;;;5094340;28;20032;-69
2023/07/27 03:26:52;;;;;;;19.40;10.18;;;15.20;99.90;;;;;;5094936;28;20028;-68
2023/07/27 03:29:18;;;;;;;19.45;10.57;;;15.20;99.90;;;;;;5094633;28;20368;-68
2023/07/27 03:31:43;;;;;;;18.95;11.07;;;15.20;99.90;;;;;;5094774;28;20035;-68
2023/07/27 03:34:09;;;;;;;19.50;11.15;;;15.20;99.90;;;;;;5094927;28;20032;-68
2023/07/27 03:36:34;;;;;;;20.98;10.88;;;15.10;99.90;;;;;;5094695;28;20028;-67
2023/07/27 03:39:00;;;;;;;21.67;11.45;;;15.20;99.90;;;;;;5094601;28;20026;-67
2023/07/27 03:41:26;;;;;;;21.23;12.10;;;15.10;99.90;;;;;;5094568;28;20463;-67
2023/07/27 03:43:51;;;;;;;21.25;12.57;;;15.10;99.90;;;;;;5094234;28;20047;-67
2023/07/27 03:46:17;;;;;;;21.95;12.07;;;15.10;99.90;;;;;;5094134;28;20364;-68
2023/07/27 03:48:45;;;;;;;21.58;12.45;;;15.10;99.90;;;;;;5094508;28;20032;-67
2023/07/27 03:51:10;;;;;;;21.52;12.90;;;15.10;99.90;;;;;;5092862;28;20031;-68
2023/07/27 03:53:36;;;;;;;22.15;12.45;;;15.10;99.90;;;;;;5093694;28;20032;-68
2023/07/27 03:56:02;;;;;;;21.00;12.88;;;15.10;99.90;;;;;;5093368;28;20409;-67
2023/07/27 03:58:28;;;;;;;22.88;14.07;;;15.10;99.90;;;;;;5093940;28;20028;-67
2023/07/27 04:00:54;;;;;;;22.70;12.73;;;15.10;99.90;;;;;;5093698;28;20050;-67
2023/07/27 04:03:19;;;;;;;22.50;13.65;;;15.10;99.90;;;;;;5093695;28;20459;-68
2023/07/27 04:05:45;;;;;;;21.67;12.73;;;15.10;99.90;;;;;;5093951;28;20467;-68
2023/07/27 04:08:10;;;;;;;23.40;13.80;;;15.10;99.90;;;;;;5093315;28;20467;-68
2023/07/27 04:10:36;;;;;;;21.08;12.95;;;15.10;99.90;;;;;;5093648;28;20017;-67
2023/07/27 04:13:02;;;;;;;22.00;12.20;;;15.10;99.90;;;;;;5090956;28;20020;-67
2023/07/27 04:15:27;;;;;;;24.20;13.25;;;15.10;99.90;;;;;;5093495;28;20422;-67
2023/07/27 04:17:53;;;;;;;22.50;13.05;;;15.10;99.90;;;;;;5093427;28;20094;-67
2023/07/27 04:20:18;;;;;;;20.65;12.20;;;15.10;99.90;;;;;;5093209;28;20389;-67
2023/07/27 04:22:44;;;;;;;21.77;12.00;;;15.20;99.90;;;;;;5088760;28;20035;-67
2023/07/27 04:25:09;;;;;;;24.92;12.23;;;15.10;99.90;;;;;;5091572;28;20119;-66
2023/07/27 04:27:35;;;;;;;20.65;11.38;;;15.20;99.90;;;;;;5092975;28;20111;-67
2023/07/27 04:30:01;;;;;;;18.52;11.00;;;15.20;99.90;;;;;;5093065;28;20120;-67
2023/07/27 04:32:27;;;;;;;19.77;11.27;;;15.20;99.90;;;;;;5093090;28;20024;-66
2023/07/27 04:34:52;;;;;;;18.25;11.35;;;15.20;99.90;;;;;;5095709;28;20433;-67
2023/07/27 04:37:18;;;;;;;20.08;11.32;;;15.20;99.90;;;;;;5092768;28;20031;-67
2023/07/27 04:39:43;;;;;;;19.30;11.38;;;15.20;99.90;;;;;;5093177;28;20554;-67
2023/07/27 04:42:09;;;;;;;19.65;11.35;;;15.20;99.90;;;;;;5093019;28;20529;-67
2023/07/27 04:44:34;;;;;;;20.85;11.98;;;15.20;99.90;;;;;;5092996;28;20390;-67
2023/07/27 04:47:00;;;;;;;20.02;10.55;;;15.20;99.90;;;;;;5093112;28;20023;-67
2023/07/27 04:49:26;;;;;;;19.42;11.02;;;15.20;99.90;;;;;;5092831;28;20039;-67
2023/07/27 04:51:51;;;;;;;19.23;11.18;;;15.20;99.90;;;;;;5092623;28;20028;-67
2023/07/27 04:54:17;;;;;;;21.73;11.88;;;15.20;99.90;;;;;;5092892;28;20028;-67
2023/07/27 04:56:42;;;;;;;20.42;11.32;;;15.30;99.90;;;;;;5093429;28;20479;-67
2023/07/27 04:59:08;;;;;;;21.77;12.38;;;15.30;99.90;;;;;;5093128;28;20020;-67
2023/07/27 05:01:33;;;;;;;22.48;13.07;;;15.30;99.90;;;;;;5093279;28;20115;-67
2023/07/27 05:03:59;;;;;;;21.63;13.15;;;15.30;99.90;;;;;;5092211;28;20016;-67
2023/07/27 05:06:24;;;;;;;22.23;12.70;;;15.30;99.90;;;;;;5092532;28;20032;-68
2023/07/27 05:08:50;;;;;;;22.30;12.68;;;15.30;99.90;;;;;;5092587;28;20426;-67
2023/07/27 05:11:16;;;;;;;21.90;13.38;;;15.30;99.90;;;;;;5093176;28;20415;-68
2023/07/27 05:13:41;;;;;;;22.50;13.38;;;15.30;99.90;;;;;;5093018;28;20024;-68
2023/07/27 05:16:07;;;;;;;21.88;13.32;;;15.30;99.90;;;;;;5092274;28;20031;-67
2023/07/27 05:18:32;;;;;;;22.65;12.90;;;15.30;99.90;;;;;;5092400;28;20103;-67
2023/07/27 05:20:58;;;;;;;22.75;13.30;;;15.30;99.90;;;;;;5091906;28;20081;-67
2023/07/27 05:23:24;;;;;;;21.10;12.65;;;15.30;99.90;;;;;;5092219;28;20379;-67
2023/07/27 05:25:50;;;;;;;22.45;13.73;;;15.30;99.90;;;;;;5092051;28;20468;-67
2023/07/27 05:28:16;;;;;;;21.83;14.07;;;15.40;99.90;;;;;;5092368;28;20104;-67
2023/07/27 05:30:42;;;;;;;22.80;15.13;;;15.40;99.90;;;;;;5091593;28;20116;-67
2023/07/27 05:33:07;;;;;;;26.10;15.18;;;15.40;99.90;;;;;;5073765;28;20020;-67
2023/07/27 05:35:33;;;;;;;21.25;13.60;;;15.40;99.90;;;;;;5091983;28;20106;-67
2023/07/27 05:37:59;;;;;;;22.25;14.68;;;15.40;99.90;;;;;;5091477;28;20039;-68
2023/07/27 05:40:24;;;;;;;24.25;15.43;;;15.50;99.90;;;;;;5091874;28;20051;-67
2023/07/27 05:42:50;;;;;;;24.05;15.20;;;15.50;99.90;;;;;;5091645;28;20059;-68
2023/07/27 05:45:16;;;;;;;24.02;14.90;;;15.50;99.90;;;;;;5091685;28;20052;-68
2023/07/27 05:47:42;;;;;;;23.88;16.13;;;15.60;99.90;;;;;;5091856;28;20109;-68
2023/07/27 05:50:08;;;;;;;26.70;16.45;;;15.60;99.90;;;;;;5091995;28;20528;-68
2023/07/27 05:52:34;;;;;;;24.80;16.52;;;15.60;99.90;;;;;;5091703;28;20028;-67
2023/07/27 05:54:59;;;;;;;24.27;16.35;;;15.60;99.90;;;;;;5092015;28;20027;-67
2023/07/27 05:57:25;;;;;;;27.15;16.70;;;15.60;99.90;;;;;;5091794;28;20035;-67
2023/07/27 05:59:51;;;;;;;24.42;14.60;;;15.70;99.90;;;;;;5091586;28;20024;-67
2023/07/27 06:02:16;;;;;;;22.25;14.35;;;15.60;99.90;;;;;;5091512;28;20090;-67
2023/07/27 06:04:42;;;;;;;20.15;13.50;;;15.60;99.90;;;;;;5091717;28;20028;-68
2023/07/27 06:07:07;;;;;;;19.15;12.48;;;15.70;99.90;;;;;;5091062;28;20105;-67
2023/07/27 06:09:36;;;;;;;17.35;10.00;;;15.70;99.90;;;;;;5091677;28;20028;-67
2023/07/27 06:12:11;;;;;;;17.73;10.30;;;15.80;99.90;;;;;;5091407;28;20032;-66
2023/07/27 06:14:40;;;;;;;17.95;10.98;;;15.80;99.90;;;;;;5092730;28;20028;-67
2023/07/27 06:17:06;;;;;;;13.15;8.25;;;15.80;99.90;;;;;;5095676;28;20024;-68
2023/07/27 06:19:32;;;;;;;17.27;10.50;;;15.90;99.90;;;;;;5095461;28;20107;-67
2023/07/27 06:21:57;;;;;;;12.98;7.10;;;15.90;99.90;;;;;;5095425;28;20123;-67
2023/07/27 06:24:23;;;;;;;11.25;6.72;;;16.00;99.90;;;;;;5095471;28;20111;-67
2023/07/27 06:26:49;;;;;;;13.45;7.63;;;16.10;99.90;;;;;;5095312;28;20027;-67
2023/07/27 06:29:15;;;;;;;16.70;7.90;;;16.20;99.90;;;;;;5095110;28;20044;-68
2023/07/27 06:31:41;;;;;;;16.33;8.00;;;16.30;99.90;;;;;;5094740;28;20676;-68
2023/07/27 06:34:07;;;;;;;8.32;3.75;;;16.40;99.90;;;;;;5094765;28;20020;-68
2023/07/27 06:36:33;;;;;;;8.85;2.65;;;16.50;99.90;;;;;;5095331;28;20117;-67
2023/07/27 06:38:59;;;;;;;17.38;7.20;;;16.70;99.90;;;;;;5095091;28;20020;-68
2023/07/27 06:41:25;;;;;;;14.25;4.53;;;16.80;99.90;;;;;;5094820;28;20047;-68
2023/07/27 06:43:54;;;;;;;11.90;3.13;;;16.90;99.90;;;;;;5094896;28;20104;-68
2023/07/27 06:46:20;;;;;;;20.48;7.78;;;17.10;99.90;;;;;;5095010;28;20166;-68
2023/07/27 06:48:46;;;;;;;16.95;6.35;;;17.10;99.90;;;;;;5094322;28;20024;-68
2023/07/27 06:51:14;;;;;;;13.82;4.95;;;17.30;99.90;;;;;;5095166;28;20028;-68
2023/07/27 06:53:40;;;;;;;16.58;4.63;;;17.30;99.90;;;;;;5095155;28;20020;-67
2023/07/27 06:56:06;;;;;;;13.68;4.68;;;17.40;99.90;;;;;;5094873;28;20480;-67
2023/07/27 06:58:31;;;;;;;14.85;4.10;;;17.50;99.90;;;;;;5094849;28;20028;-67
2023/07/27 07:00:57;;;;;;;17.73;3.92;;;17.50;99.90;;;;;;5094580;28;20016;-67
2023/07/27 07:03:23;;;;;;;14.35;4.20;;;17.60;99.90;;;;;;5094279;28;20039;-67
2023/07/27 07:05:48;;;;;;;13.63;4.38;;;17.70;99.90;;;;;;5094797;28;20126;-67
2023/07/27 07:08:14;;;;;;;13.38;2.80;;;17.80;99.90;;;;;;5094680;28;20032;-67
2023/07/27 07:10:40;;;;;;;13.27;4.30;;;17.90;99.90;;;;;;5094779;28;20105;-67
2023/07/27 07:13:05;;;;;;;13.00;2.90;;;17.90;99.90;;;;;;5094719;28;20024;-67
2023/07/27 07:15:31;;;;;;;14.90;4.05;;;18.00;99.90;;;;;;5094594;28;20371;-67
2023/07/27 07:17:57;;;;;;;5.60;1.63;;;18.10;99.90;;;;;;5094148;28;20553;-67
2023/07/27 07:20:23;;;;;;;12.98;3.67;;;18.00;99.90;;;;;;5093445;28;20024;-67
2023/07/27 07:22:49;;;;;;;11.05;3.97;;;18.10;99.90;;;;;;5094080;28;20068;-67
2023/07/27 07:25:15;;;;;;;11.65;2.92;;;18.20;99.90;;;;;;5093788;28;20066;-68
2023/07/27 07:27:40;;;;;;;12.73;3.30;;;18.30;99.90;;;;;;5093062;28;20452;-67
2023/07/27 07:30:06;;;;;;;13.57;3.38;;;18.30;99.90;;;;;;5093808;28;20070;-67
2023/07/27 07:32:33;;;;;;;11.88;3.47;;;18.30;99.90;;;;;;5093287;28;20023;-67
2023/07/27 07:34:59;;;;;;;12.38;3.03;;;18.30;99.90;;;;;;5093832;28;20371;-67
2023/07/27 07:37:24;;;;;;;14.48;3.35;;;18.30;99.90;;;;;;5093791;28;20046;-66
2023/07/27 07:39:50;;;;;;;13.15;2.70;;;18.40;99.90;;;;;;5094038;28;20034;-68
2023/07/27 07:42:15;;;;;;;11.63;3.38;;;18.40;99.90;;;;;;5093817;28;20084;-67
2023/07/27 07:44:42;;;;;;;8.82;2.40;;;18.50;99.90;;;;;;5093682;28;20044;-67
2023/07/27 07:47:08;;;;;;;4.40;1.40;;;18.60;99.90;;;;;;5091289;28;20025;-67
2023/07/27 07:49:33;;;;;;;11.48;2.22;;;18.70;99.90;;;;;;5094160;28;20384;-67
2023/07/27 07:51:59;;;;;;;13.55;2.70;;;18.70;99.90;;;;;;5094685;28;20055;-67
2023/07/27 07:54:28;;;;;;;6.85;2.35;;;18.70;99.90;;;;;;5094647;28;20032;-67
2023/07/27 07:56:54;;;;;;;8.20;2.60;;;18.70;99.90;;;;;;5094374;28;20024;-67
2023/07/27 07:59:20;;;;;;;5.95;2.38;;;18.60;99.90;;;;;;5093923;28;20025;-67
2023/07/27 08:01:45;;;;;;;8.48;2.13;;;18.50;99.90;;;;;;5092921;28;20501;-67
2023/07/27 08:04:11;;;;;;;14.70;3.25;;;18.50;99.90;;;;;;5094210;28;20028;-67
2023/07/27 08:06:37;;;;;;;10.95;2.95;;;18.60;99.90;;;;;;5075814;28;20032;-68
2023/07/27 08:09:02;;;;;;;15.88;4.03;;;18.60;99.90;;;;;;5093923;28;20107;-67
2023/07/27 08:11:28;;;;;;;9.85;2.60;;;18.60;99.90;;;;;;5093939;28;20051;-68
2023/07/27 08:13:55;;;;;;;16.92;3.22;;;18.70;99.90;;;;;;5072602;28;20361;-67
2023/07/27 08:16:21;;;;;;;12.02;2.80;;;18.80;99.90;;;;;;5093426;28;20024;-68
2023/07/27 08:18:46;;;;;;;9.35;2.53;;;19.00;99.90;;;;;;5094385;28;20031;-67
2023/07/27 08:21:12;;;;;;;12.63;3.00;;;19.00;99.90;;;;;;5094136;28;20375;-68
2023/07/27 08:23:38;;;;;;;13.10;3.00;;;19.10;99.90;;;;;;5093405;28;20028;-67
2023/07/27 08:26:08;;;;;;;12.35;2.90;;;19.20;99.90;;;;;;5093563;28;20039;-66
2023/07/27 08:28:34;;;;;;;15.02;3.17;;;19.20;99.90;;;;;;5090263;28;20120;-66
2023/07/27 08:31:03;;;;;;;9.32;2.40;;;19.30;99.90;;;;;;5093437;28;20135;-66
2023/07/27 08:33:28;;;;;;;9.52;2.45;;;19.30;99.90;;;;;;5093551;28;20483;-66
2023/07/27 08:35:54;;;;;;;9.07;2.63;;;19.30;99.90;;;;;;5093695;28;20028;-66
2023/07/27 08:38:20;;;;;;;8.73;2.63;;;19.10;99.90;;;;;;5093344;28;20036;-66
2023/07/27 08:40:59;;;;;;;11.25;2.80;;;19.00;99.90;;;;;;5098590;28;20111;-66
2023/07/27 08:43:26;;;;;;;14.32;3.33;;;19.00;99.90;;;;;;5113716;28;20049;-67
2023/07/27 08:45:52;;;;;;;9.25;2.90;;;19.00;99.90;;;;;;5108679;28;20028;-67
2023/07/27 08:48:18;;;;;;;10.38;2.50;;;19.10;99.90;;;;;;5091626;28;20069;-67
2023/07/27 08:50:46;;;;;;;13.13;3.33;;;19.10;99.90;;;;;;5092324;28;20376;-67
2023/07/27 08:53:12;;;;;;;17.17;3.78;;;19.10;99.90;;;;;;5091890;28;20036;-67
2023/07/27 08:55:40;;;;;;;15.75;3.25;;;19.10;99.90;;;;;;5091780;28;20026;-68
2023/07/27 08:58:07;;;;;;;16.95;2.78;;;19.00;99.90;;;;;;5091165;28;20027;-68
2023/07/27 09:00:33;;;;;;;24.08;4.88;;;18.90;99.90;;;;;;5091821;28;20028;-69
2023/07/27 09:02:59;;;;;;;19.95;5.32;;;18.80;99.90;;;;;;5092073;28;20044;-69
2023/07/27 09:05:38;;;;;;;16.13;5.00;;;18.60;99.90;;;;;;5091509;28;20349;-69
2023/07/27 09:08:11;;;;;;;16.90;5.07;;;18.50;99.90;;;;;;5089957;28;20089;-68
2023/07/27 09:10:38;;;;;;;13.05;3.08;;;18.50;99.90;;;;;;5091390;28;20032;-68
2023/07/27 09:13:04;;;;;;;16.05;4.65;;;18.50;99.90;;;;;;5090121;28;20024;-68
2023/07/27 09:15:32;;;;;;;15.43;3.45;;;18.50;99.90;;;;;;5091913;28;20023;-67
2023/07/27 09:18:01;;;;;;;16.63;4.22;;;18.40;99.90;;;;;;5091571;28;20051;-68
2023/07/27 09:20:27;;;;;;;15.77;3.47;;;18.50;99.90;;;;;;5091823;28;20024;-68
2023/07/27 09:22:55;;;;;;;18.73;4.13;;;18.60;99.90;;;;;;5087298;28;20088;-69
2023/07/27 09:25:22;;;;;;;19.77;6.47;;;18.70;99.90;;;;;;5092270;28;20459;-68
2023/07/27 09:27:55;;;;;;;18.70;7.05;;;18.70;99.90;;;;;;5092929;28;20107;-68
2023/07/27 09:30:22;;;;;;;24.75;8.27;;;18.80;99.90;;;;;;5092636;28;20024;-67
2023/07/27 09:32:49;;;;;;;19.85;5.85;;;18.80;99.90;;;;;;5105120;28;20028;-68
2023/07/27 09:35:16;;;;;;;18.13;7.35;;;18.90;99.90;;;;;;5112699;28;20036;-68
2023/07/27 09:37:46;;;;;;;12.02;3.42;;;19.00;99.90;;;;;;5103624;28;20028;-69
2023/07/27 09:40:15;;;;;;;18.80;6.88;;;19.00;99.90;;;;;;5091309;28;20368;-68
2023/07/27 09:42:44;;;;;;;17.60;5.75;;;19.00;99.90;;;;;;5091702;28;20044;-68
2023/07/27 09:45:11;;;;;;;18.92;4.93;;;19.00;99.90;;;;;;5091862;28;20052;-68
2023/07/27 09:47:37;;;;;;;13.77;5.10;;;19.00;99.90;;;;;;5091845;28;20034;-68
2023/07/27 09:50:03;;;;;;;15.05;4.88;;;19.10;99.90;;;;;;5091152;28;20032;-68
2023/07/27 09:52:30;;;;;;;13.45;4.15;;;19.10;99.90;;;;;;5091728;28;20032;-67
2023/07/27 09:54:57;;;;;;;14.10;4.95;;;19.10;99.90;;;;;;5092144;28;20119;-68
2023/07/27 09:57:24;;;;;;;19.85;4.43;;;19.10;99.90;;;;;;5091578;28;20030;-67
2023/07/27 09:59:50;;;;;;;14.65;4.45;;;19.20;99.90;;;;;;5092217;28;20458;-68
2023/07/27 10:02:16;;;;;;;13.60;4.63;;;19.30;99.90;;;;;;5073772;28;20195;-69
2023/07/27 10:04:42;;;;;;;16.48;4.60;;;19.40;99.90;;;;;;5092054;28;20101;-68
2023/07/27 10:07:09;;;;;;;16.55;4.85;;;19.40;99.90;;;;;;5091860;28;20119;-68
2023/07/27 10:09:36;;;;;;;15.02;4.82;;;19.30;99.90;;;;;;5092429;28;20028;-68
2023/07/27 10:12:03;;;;;;;17.63;5.07;;;19.30;99.90;;;;;;5092308;28;20042;-68
2023/07/27 10:14:29;;;;;;;14.70;4.45;;;19.30;99.90;;;;;;5092491;28;20032;-68
2023/07/27 10:17:08;;;;;;;15.98;5.63;;;19.40;99.90;;;;;;5092159;28;20025;-68
2023/07/27 10:19:43;;;;;;;7.97;2.30;;;19.40;99.90;;;;;;5092291;28;20439;-68
2023/07/27 10:22:14;;;;;;;11.38;5.50;;;19.50;99.90;;;;;;5091874;28;20042;-68
2023/07/27 10:25:11;;;;;;;13.95;5.05;;;19.60;99.90;;;;;;5092086;28;20036;-68
2023/07/27 10:27:53;;;;;;;8.70;2.90;;;19.70;99.90;;;;;;5046899;28;20046;-68
2023/07/27 10:30:19;;;;;;;9.27;3.40;;;19.80;99.90;;;;;;5092081;28;20060;-68
2023/07/27 10:33:15;;;;;;;13.43;4.45;;;20.00;99.90;;;;;;5073987;28;20063;-68
2023/07/27 10:36:01;;;;;;;9.65;3.33;;;20.20;99.90;;;;;;5092134;28;20028;-68
2023/07/27 10:38:26;;;;;;;8.45;2.35;;;20.30;99.90;;;;;;5092211;28;20548;-68
2023/07/27 10:40:52;;;;;;;10.57;3.45;;;20.60;99.90;;;;;;5092284;28;20057;-68
2023/07/27 10:43:18;;;;;;;17.52;4.97;;;21.00;99.90;;;;;;5091808;28;20043;-68
2023/07/27 10:45:53;;;;;;;13.38;3.50;;;21.20;99.90;;;;;;5092315;28;20032;-67
2023/07/27 10:48:18;;;;;;;17.80;5.55;;;21.40;99.90;;;;;;5091948;28;20166;-68
2023/07/27 10:50:44;;;;;;;10.75;2.95;;;21.20;99.90;;;;;;5092226;28;20547;-68
2023/07/27 10:53:10;;;;;;;17.85;5.90;;;21.00;99.90;;;;;;5092136;28;20023;-68
2023/07/27 10:55:40;;;;;;;12.77;4.72;;;21.00;99.90;;;;;;5092066;28;20028;-67
2023/07/27 10:58:07;;;;;;;9.48;3.22;;;21.20;99.90;;;;;;5091796;28;20361;-67
2023/07/27 11:00:37;;;;;;;8.73;3.33;;;21.60;99.90;;;;;;5091864;28;20028;-66
2023/07/27 11:03:03;;;;;;;7.53;2.75;;;21.70;99.90;;;;;;5093216;28;20154;-67
2023/07/27 11:05:28;;;;;;;8.00;2.90;;;21.80;99.90;;;;;;5095520;28;20555;-67
2023/07/27 11:08:01;;;;;;;8.60;3.15;;;21.80;99.90;;;;;;5095727;28;20391;-67
2023/07/27 11:10:30;;;;;;;11.88;4.57;;;21.80;99.90;;;;;;5095661;28;20089;-67
2023/07/27 11:12:57;;;;;;;12.55;3.33;;;21.70;99.90;;;;;;5095629;28;20055;-67
2023/07/27 11:15:24;;;;;;;9.48;3.33;;;21.70;99.90;;;;;;5095446;28;20051;-67
2023/07/27 11:17:55;;;;;;;12.52;3.63;;;21.60;99.90;;;;;;5095525;28;20069;-67
2023/07/27 11:20:23;;;;;;;13.47;3.33;;;21.40;99.90;;;;;;5095526;28;20032;-67
2023/07/27 11:22:50;;;;;;;13.40;3.20;;;21.30;99.90;;;;;;5095307;28;20035;-67
2023/07/27 11:25:16;;;;;;;13.32;3.00;;;21.30;99.90;;;;;;5095119;28;20471;-67
2023/07/27 11:27:41;;;;;;;10.20;3.03;;;21.40;99.90;;;;;;5094873;28;20063;-67
2023/07/27 11:30:12;;;;;;;12.32;3.83;;;21.50;99.90;;;;;;5095269;28;20102;-67
2023/07/27 11:32:38;;;;;;;10.20;3.72;;;21.70;99.90;;;;;;5095174;28;20055;-67
2023/07/27 11:35:04;;;;;;;12.80;3.38;;;21.60;99.90;;;;;;5095129;28;20035;-67
2023/07/27 11:37:31;;;;;;;6.05;1.92;;;21.70;99.90;;;;;;5095087;28;20081;-68
2023/07/27 11:39:57;;;;;;;10.50;3.50;;;21.60;99.90;;;;;;5094849;28;20494;-67
2023/07/27 11:42:27;;;;;;;9.40;2.97;;;21.50;99.90;;;;;;5094717;28;20421;-67
2023/07/27 11:44:53;;;;;;;7.18;2.78;;;21.40;99.90;;;;;;5095022;28;20069;-66
2023/07/27 11:47:18;;;;;;;11.13;4.38;;;21.30;99.90;;;;;;5094725;28;20024;-67
2023/07/27 11:49:44;;;;;;;9.82;4.03;;;21.20;99.90;;;;;;5094894;28;20052;-67
2023/07/27 11:52:10;;;;;;;12.48;3.78;;;21.10;99.90;;;;;;5093490;28;20047;-68
2023/07/27 11:54:40;;;;;;;12.95;3.63;;;21.00;99.90;;;;;;5094570;28;20479;-68
2023/07/27 11:57:05;;;;;;;12.98;3.80;;;21.00;99.90;;;;;;5094688;28;20471;-68
2023/07/27 11:59:31;;;;;;;12.82;3.50;;;20.90;99.90;;;;;;5094711;28;20028;-68
2023/07/27 12:01:57;;;;;;;14.18;3.75;;;20.90;99.90;;;;;;5094527;28;20095;-67
2023/07/27 12:04:25;;;;;;;12.00;4.03;;;21.00;99.90;;;;;;5094649;28;20032;-67
2023/07/27 12:06:51;;;;;;;12.95;4.05;;;20.90;99.90;;;;;;5094234;28;20085;-67
2023/07/27 12:09:16;;;;;;;16.45;4.95;;;21.00;99.90;;;;;;5094558;28;20035;-67
2023/07/27 12:11:43;;;;;;;9.68;3.80;;;21.00;99.90;;;;;;5094048;28;20101;-67
2023/07/27 12:14:10;;;;;;;15.18;3.92;;;21.00;99.90;;;;;;5094350;28;20119;-67
2023/07/27 12:16:45;;;;;;;16.90;4.20;;;21.10;99.90;;;;;;5094367;28;20028;-67
2023/07/27 12:19:11;;;;;;;10.85;3.53;;;21.10;99.90;;;;;;5094408;28;20030;-67
2023/07/27 12:21:38;;;;;;;7.03;3.05;;;21.00;99.90;;;;;;5094082;28;20032;-67
2023/07/27 12:24:08;;;;;;;8.02;3.28;;;21.00;99.90;;;;;;5092765;28;20093;-67
2023/07/27 12:26:35;;;;;;;9.43;2.60;;;20.90;99.90;;;;;;5094073;28;20380;-67
2023/07/27 12:29:01;;;;;;;8.18;2.78;;;21.10;99.90;;;;;;5094124;28;20050;-67
2023/07/27 12:31:26;;;;;;;11.65;2.50;;;21.30;99.90;;;;;;5093867;28;20464;-68
2023/07/27 12:33:52;;;;;;;9.68;2.40;;;21.30;99.90;;;;;;5094153;28;20524;-67
2023/07/27 12:36:18;;;;;;;8.15;2.88;;;21.40;99.90;;;;;;5093685;28;20020;-67